BCS2FC LEVT-LPPT
Flight info
| Callsign | BCS2FC |
|---|---|
| Flight time | 1h 11m |
| Altitude | 33000 |
| Route | DGO N976 NEA DCT ARDID DCT INBOM |
| Aircraft | A306/H-SDE3FGHIRWY/LB1 |
Departure
| Time | 2026-05-01 10:17 |
|---|---|
| Airport | Vitoria Airport (LEVT) |
Arrival
| Time | 2026-05-01 11:28 |
|---|---|
| Airport | Lisbon Humberto Delgado Airport (LPPT) |
| Time | Latitude | Longitude | Altitude | Speed | Heading |
|---|---|---|---|---|---|
| 2026-05-01 09:59 | 42.87915 | -2.73491 | 1673 ft | 0 kts | 36° |
| 2026-05-01 10:12 | 42.87916 | -2.73491 | 1673 ft | 0 kts | 36° |
| 2026-05-01 10:12 | 42.87963 | -2.73432 | 1674 ft | 4 kts | 83° |
| 2026-05-01 10:13 | 42.87954 | -2.73412 | 1674 ft | 0 kts | 130° |
| 2026-05-01 10:13 | 42.87949 | -2.73402 | 1674 ft | 5 kts | 131° |
| 2026-05-01 10:13 | 42.87889 | -2.73400 | 1672 ft | 13 kts | 217° |
| 2026-05-01 10:14 | 42.87674 | -2.73348 | 1668 ft | 22 kts | 215° |
| 2026-05-01 10:14 | 42.87534 | -2.73488 | 1668 ft | 27 kts | 216° |
| 2026-05-01 10:14 | 42.87369 | -2.73651 | 1665 ft | 30 kts | 215° |
| 2026-05-01 10:14 | 42.87241 | -2.73777 | 1665 ft | 11 kts | 214° |
| 2026-05-01 10:15 | 42.87219 | -2.73799 | 1665 ft | 0 kts | 216° |
| 2026-05-01 10:15 | 42.87217 | -2.73801 | 1665 ft | 3 kts | 216° |
| 2026-05-01 10:15 | 42.87143 | -2.73869 | 1664 ft | 19 kts | 202° |
| 2026-05-01 10:16 | 42.87044 | -2.73735 | 1665 ft | 22 kts | 109° |
| 2026-05-01 10:16 | 42.87127 | -2.73584 | 1664 ft | 24 kts | 36° |
| 2026-05-01 10:16 | 42.88158 | -2.72570 | 1687 ft | 168 kts | 36° |
| 2026-05-01 10:17 | 42.89157 | -2.71573 | 2318 ft | 181 kts | 37° |
| 2026-05-01 10:17 | 42.91299 | -2.69417 | 4060 ft | 209 kts | 47° |
| 2026-05-01 10:17 | 42.91820 | -2.67629 | 5003 ft | 217 kts | 91° |
| 2026-05-01 10:18 | 42.90576 | -2.63661 | 6941 ft | 238 kts | 122° |
| 2026-05-01 10:18 | 42.89731 | -2.61755 | 7909 ft | 240 kts | 123° |
| 2026-05-01 10:18 | 42.88839 | -2.59810 | 8899 ft | 246 kts | 124° |
| 2026-05-01 10:19 | 42.87914 | -2.57843 | 9888 ft | 255 kts | 124° |
| 2026-05-01 10:19 | 42.86954 | -2.55821 | 10872 ft | 261 kts | 124° |
| 2026-05-01 10:19 | 42.85964 | -2.53741 | 11863 ft | 265 kts | 124° |
| 2026-05-01 10:20 | 42.83192 | -2.50917 | 13876 ft | 265 kts | 176° |
| 2026-05-01 10:20 | 42.81370 | -2.51321 | 14783 ft | 280 kts | 204° |
| 2026-05-01 10:20 | 42.79675 | -2.52779 | 15561 ft | 305 kts | 216° |
| 2026-05-01 10:20 | 42.77920 | -2.54612 | 16333 ft | 335 kts | 217° |
| 2026-05-01 10:21 | 42.75985 | -2.56649 | 17111 ft | 368 kts | 217° |
| 2026-05-01 10:21 | 42.71533 | -2.61267 | 18681 ft | 437 kts | 217° |
| 2026-05-01 10:21 | 42.69127 | -2.63740 | 19671 ft | 433 kts | 217° |
| 2026-05-01 10:22 | 42.64346 | -2.68645 | 21702 ft | 426 kts | 217° |
| 2026-05-01 10:22 | 42.59762 | -2.73357 | 23752 ft | 398 kts | 217° |
| 2026-05-01 10:23 | 42.57562 | -2.75618 | 24806 ft | 397 kts | 217° |
| 2026-05-01 10:23 | 42.53070 | -2.80195 | 26858 ft | 413 kts | 217° |
| 2026-05-01 10:23 | 42.50731 | -2.82578 | 27897 ft | 419 kts | 217° |
| 2026-05-01 10:24 | 42.46094 | -2.87336 | 29928 ft | 418 kts | 221° |
| 2026-05-01 10:24 | 42.43077 | -2.93845 | 32049 ft | 405 kts | 248° |
| 2026-05-01 10:25 | 42.40907 | -3.01005 | 33087 ft | 412 kts | 247° |
| 2026-05-01 10:25 | 42.38467 | -3.08282 | 33201 ft | 438 kts | 246° |
| 2026-05-01 10:26 | 42.35890 | -3.15800 | 33181 ft | 430 kts | 246° |
| 2026-05-01 10:27 | 42.30851 | -3.30505 | 33179 ft | 428 kts | 246° |
| 2026-05-01 10:28 | 42.27041 | -3.41575 | 33175 ft | 430 kts | 246° |
| 2026-05-01 10:28 | 42.23216 | -3.52637 | 33169 ft | 432 kts | 246° |
| 2026-05-01 10:29 | 42.19353 | -3.63766 | 33160 ft | 432 kts | 246° |
| 2026-05-01 10:30 | 42.14208 | -3.78522 | 33159 ft | 432 kts | 245° |
| 2026-05-01 10:31 | 42.09011 | -3.93349 | 33156 ft | 434 kts | 246° |
| 2026-05-01 10:32 | 42.05091 | -4.04481 | 33164 ft | 433 kts | 245° |
| 2026-05-01 10:33 | 41.99676 | -4.19080 | 33154 ft | 431 kts | 244° |
| 2026-05-01 10:34 | 41.95534 | -4.29940 | 33151 ft | 430 kts | 244° |
| 2026-05-01 10:34 | 41.92777 | -4.37186 | 33148 ft | 430 kts | 244° |
| 2026-05-01 10:35 | 41.88638 | -4.48014 | 33149 ft | 430 kts | 244° |
| 2026-05-01 10:35 | 41.85877 | -4.55216 | 33152 ft | 432 kts | 244° |
| 2026-05-01 10:36 | 41.81732 | -4.65989 | 33157 ft | 432 kts | 243° |
| 2026-05-01 10:37 | 41.78975 | -4.73139 | 33161 ft | 426 kts | 243° |
| 2026-05-01 10:37 | 41.74846 | -4.83807 | 33162 ft | 426 kts | 243° |
| 2026-05-01 10:38 | 41.72078 | -4.90945 | 33159 ft | 427 kts | 243° |
| 2026-05-01 10:38 | 41.69323 | -4.98023 | 33163 ft | 430 kts | 242° |
| 2026-05-01 10:39 | 41.66524 | -5.05191 | 33156 ft | 424 kts | 242° |
| 2026-05-01 10:39 | 41.63741 | -5.12299 | 33152 ft | 426 kts | 242° |
| 2026-05-01 10:40 | 41.60972 | -5.19365 | 33153 ft | 429 kts | 242° |
| 2026-05-01 10:40 | 41.58205 | -5.26411 | 33147 ft | 424 kts | 242° |
| 2026-05-01 10:41 | 41.55421 | -5.33479 | 33138 ft | 425 kts | 242° |
| 2026-05-01 10:42 | 41.51267 | -5.43989 | 33132 ft | 424 kts | 242° |
| 2026-05-01 10:42 | 41.48483 | -5.51013 | 33132 ft | 426 kts | 242° |
| 2026-05-01 10:43 | 41.45702 | -5.58016 | 33129 ft | 422 kts | 242° |
| 2026-05-01 10:43 | 41.42918 | -5.65013 | 33126 ft | 423 kts | 241° |
| 2026-05-01 10:44 | 41.40111 | -5.72041 | 33137 ft | 425 kts | 241° |
| 2026-05-01 10:44 | 41.37303 | -5.79066 | 33138 ft | 422 kts | 241° |
| 2026-05-01 10:45 | 41.34520 | -5.86001 | 33139 ft | 423 kts | 241° |
| 2026-05-01 10:45 | 41.31707 | -5.92999 | 33142 ft | 422 kts | 241° |
| 2026-05-01 10:46 | 41.28920 | -5.99916 | 33139 ft | 421 kts | 241° |
| 2026-05-01 10:46 | 41.26099 | -6.06905 | 33137 ft | 420 kts | 241° |
| 2026-05-01 10:47 | 41.23286 | -6.13849 | 33137 ft | 424 kts | 241° |
| 2026-05-01 10:47 | 41.20471 | -6.20780 | 33129 ft | 419 kts | 241° |
| 2026-05-01 10:48 | 41.17632 | -6.27665 | 33123 ft | 420 kts | 238° |
| 2026-05-01 10:48 | 41.14179 | -6.33981 | 33125 ft | 423 kts | 232° |
| 2026-05-01 10:49 | 41.10586 | -6.40216 | 33122 ft | 418 kts | 233° |
| 2026-05-01 10:49 | 41.07037 | -6.46499 | 33120 ft | 419 kts | 233° |
| 2026-05-01 10:50 | 41.03511 | -6.52750 | 33122 ft | 421 kts | 233° |
| 2026-05-01 10:50 | 40.99990 | -6.58976 | 33117 ft | 418 kts | 233° |
| 2026-05-01 10:51 | 40.96433 | -6.65252 | 33117 ft | 419 kts | 233° |
| 2026-05-01 10:51 | 40.92900 | -6.71474 | 33123 ft | 419 kts | 233° |
| 2026-05-01 10:52 | 40.89363 | -6.77694 | 33123 ft | 417 kts | 233° |
| 2026-05-01 10:52 | 40.85827 | -6.83895 | 33129 ft | 418 kts | 233° |
| 2026-05-01 10:53 | 40.82290 | -6.90074 | 33129 ft | 418 kts | 233° |
| 2026-05-01 10:53 | 40.78766 | -6.96228 | 33127 ft | 416 kts | 233° |
| 2026-05-01 10:54 | 40.75217 | -7.02416 | 33130 ft | 417 kts | 233° |
| 2026-05-01 10:54 | 40.71679 | -7.08575 | 33129 ft | 417 kts | 233° |
| 2026-05-01 10:55 | 40.68148 | -7.14695 | 33128 ft | 415 kts | 233° |
| 2026-05-01 10:55 | 40.64633 | -7.20791 | 33127 ft | 416 kts | 233° |
| 2026-05-01 10:56 | 40.61129 | -7.26857 | 33125 ft | 414 kts | 233° |
| 2026-05-01 10:56 | 40.57588 | -7.32965 | 33122 ft | 411 kts | 233° |
| 2026-05-01 10:57 | 40.54077 | -7.39011 | 33121 ft | 415 kts | 233° |
| 2026-05-01 10:57 | 40.50577 | -7.45030 | 33117 ft | 413 kts | 233° |
| 2026-05-01 10:58 | 40.47047 | -7.51084 | 33113 ft | 410 kts | 233° |
| 2026-05-01 10:58 | 40.43521 | -7.57123 | 33119 ft | 413 kts | 234° |
| 2026-05-01 10:59 | 40.40031 | -7.63083 | 33117 ft | 410 kts | 234° |
| 2026-05-01 10:59 | 40.36509 | -7.69095 | 33137 ft | 409 kts | 233° |
| 2026-05-01 11:00 | 40.33001 | -7.75073 | 33129 ft | 410 kts | 233° |
| 2026-05-01 11:00 | 40.29485 | -7.81050 | 33128 ft | 411 kts | 233° |
| 2026-05-01 11:01 | 40.25980 | -7.86986 | 33122 ft | 407 kts | 233° |
| 2026-05-01 11:01 | 40.22472 | -7.92917 | 33114 ft | 407 kts | 233° |
| 2026-05-01 11:02 | 40.18984 | -7.98820 | 33118 ft | 409 kts | 234° |
| 2026-05-01 11:02 | 40.15488 | -8.04712 | 33115 ft | 407 kts | 234° |
| 2026-05-01 11:03 | 40.11968 | -8.10641 | 33108 ft | 403 kts | 234° |
| 2026-05-01 11:03 | 40.08485 | -8.16500 | 33118 ft | 408 kts | 234° |
| 2026-05-01 11:04 | 40.04991 | -8.22361 | 32804 ft | 411 kts | 234° |
| 2026-05-01 11:04 | 40.03217 | -8.25331 | 32256 ft | 417 kts | 234° |
| 2026-05-01 11:04 | 40.01337 | -8.28286 | 31684 ft | 414 kts | 227° |
| 2026-05-01 11:04 | 39.98905 | -8.30367 | 31121 ft | 416 kts | 207° |
| 2026-05-01 11:05 | 39.96088 | -8.31230 | 30596 ft | 416 kts | 192° |
| 2026-05-01 11:05 | 39.93184 | -8.31542 | 30039 ft | 412 kts | 189° |
| 2026-05-01 11:05 | 39.90271 | -8.31813 | 29497 ft | 410 kts | 190° |
| 2026-05-01 11:05 | 39.87417 | -8.32172 | 29133 ft | 407 kts | 192° |
| 2026-05-01 11:06 | 39.84629 | -8.32581 | 29125 ft | 404 kts | 192° |
| 2026-05-01 11:06 | 39.81797 | -8.33020 | 28990 ft | 418 kts | 192° |
| 2026-05-01 11:06 | 39.78812 | -8.33483 | 28443 ft | 425 kts | 192° |
| 2026-05-01 11:07 | 39.73014 | -8.34375 | 27402 ft | 413 kts | 192° |
| 2026-05-01 11:07 | 39.70235 | -8.34992 | 26863 ft | 400 kts | 202° |
| 2026-05-01 11:07 | 39.67865 | -8.36714 | 26336 ft | 385 kts | 223° |
| 2026-05-01 11:07 | 39.66056 | -8.39201 | 25818 ft | 376 kts | 233° |
| 2026-05-01 11:08 | 39.64481 | -8.41891 | 25291 ft | 369 kts | 235° |
| 2026-05-01 11:08 | 39.62994 | -8.44524 | 24774 ft | 363 kts | 235° |
| 2026-05-01 11:08 | 39.60003 | -8.49703 | 23824 ft | 350 kts | 234° |
| 2026-05-01 11:09 | 39.58447 | -8.52091 | 23420 ft | 343 kts | 224° |
| 2026-05-01 11:09 | 39.56560 | -8.53928 | 23043 ft | 337 kts | 216° |
| 2026-05-01 11:09 | 39.54571 | -8.55526 | 22656 ft | 331 kts | 214° |
| 2026-05-01 11:10 | 39.50673 | -8.58544 | 21899 ft | 319 kts | 214° |
| 2026-05-01 11:10 | 39.48792 | -8.60013 | 21513 ft | 314 kts | 214° |
| 2026-05-01 11:10 | 39.46926 | -8.61472 | 21136 ft | 310 kts | 214° |
| 2026-05-01 11:10 | 39.45058 | -8.62940 | 20761 ft | 312 kts | 213° |
| 2026-05-01 11:11 | 39.43172 | -8.64422 | 20385 ft | 314 kts | 213° |
| 2026-05-01 11:11 | 39.41284 | -8.65901 | 19972 ft | 313 kts | 212° |
| 2026-05-01 11:11 | 39.39439 | -8.67345 | 19512 ft | 311 kts | 212° |
| 2026-05-01 11:11 | 39.37588 | -8.68792 | 19137 ft | 306 kts | 212° |
| 2026-05-01 11:12 | 39.35789 | -8.70198 | 18759 ft | 302 kts | 212° |
| 2026-05-01 11:12 | 39.33987 | -8.71608 | 18391 ft | 300 kts | 212° |
| 2026-05-01 11:12 | 39.32224 | -8.73027 | 18027 ft | 302 kts | 215° |
| 2026-05-01 11:12 | 39.30557 | -8.74695 | 17632 ft | 302 kts | 220° |
| 2026-05-01 11:13 | 39.28987 | -8.76427 | 17238 ft | 299 kts | 221° |
| 2026-05-01 11:13 | 39.27437 | -8.78185 | 16856 ft | 296 kts | 221° |
| 2026-05-01 11:13 | 39.25898 | -8.79945 | 16483 ft | 296 kts | 221° |
| 2026-05-01 11:13 | 39.24366 | -8.81697 | 16092 ft | 296 kts | 221° |
| 2026-05-01 11:14 | 39.22825 | -8.83459 | 15702 ft | 294 kts | 220° |
| 2026-05-01 11:14 | 39.21302 | -8.85197 | 15314 ft | 291 kts | 220° |
| 2026-05-01 11:14 | 39.19787 | -8.86925 | 14939 ft | 290 kts | 220° |
| 2026-05-01 11:14 | 39.18295 | -8.88630 | 14573 ft | 290 kts | 220° |
| 2026-05-01 11:15 | 39.16782 | -8.90358 | 14200 ft | 290 kts | 220° |
| 2026-05-01 11:15 | 39.15271 | -8.92081 | 13813 ft | 288 kts | 220° |
| 2026-05-01 11:15 | 39.13793 | -8.93772 | 13448 ft | 285 kts | 220° |
| 2026-05-01 11:15 | 39.12312 | -8.95458 | 13076 ft | 283 kts | 220° |
| 2026-05-01 11:16 | 39.10841 | -8.97127 | 12765 ft | 281 kts | 220° |
| 2026-05-01 11:16 | 39.09370 | -8.98794 | 12510 ft | 282 kts | 220° |
| 2026-05-01 11:16 | 39.07905 | -9.00459 | 12254 ft | 283 kts | 220° |
| 2026-05-01 11:16 | 39.06435 | -9.02128 | 12019 ft | 282 kts | 220° |
| 2026-05-01 11:17 | 39.04968 | -9.03797 | 11767 ft | 280 kts | 220° |
| 2026-05-01 11:17 | 39.03509 | -9.05455 | 11521 ft | 280 kts | 220° |
| 2026-05-01 11:17 | 39.02034 | -9.07128 | 11267 ft | 280 kts | 220° |
| 2026-05-01 11:17 | 39.00551 | -9.08686 | 11008 ft | 277 kts | 211° |
| 2026-05-01 11:18 | 38.98837 | -9.09853 | 10766 ft | 276 kts | 204° |
| 2026-05-01 11:18 | 38.97083 | -9.10864 | 10514 ft | 277 kts | 203° |
| 2026-05-01 11:18 | 38.95307 | -9.11844 | 10261 ft | 275 kts | 202° |
| 2026-05-01 11:18 | 38.93820 | -9.12654 | 10047 ft | 273 kts | 202° |
| 2026-05-01 11:19 | 38.92082 | -9.13593 | 9796 ft | 272 kts | 202° |
| 2026-05-01 11:19 | 38.90323 | -9.14539 | 9546 ft | 274 kts | 202° |
| 2026-05-01 11:19 | 38.88553 | -9.15488 | 9297 ft | 272 kts | 202° |
| 2026-05-01 11:19 | 38.86803 | -9.16424 | 9014 ft | 273 kts | 202° |
| 2026-05-01 11:20 | 38.85068 | -9.17351 | 8723 ft | 273 kts | 202° |
| 2026-05-01 11:20 | 38.83308 | -9.18291 | 8425 ft | 270 kts | 202° |
| 2026-05-01 11:20 | 38.81573 | -9.19219 | 8126 ft | 268 kts | 202° |
| 2026-05-01 11:20 | 38.79837 | -9.20144 | 7833 ft | 270 kts | 202° |
| 2026-05-01 11:21 | 38.78081 | -9.21082 | 7534 ft | 270 kts | 202° |
| 2026-05-01 11:21 | 38.76349 | -9.22006 | 7236 ft | 267 kts | 202° |
| 2026-05-01 11:21 | 38.74646 | -9.22912 | 6941 ft | 265 kts | 202° |
| 2026-05-01 11:21 | 38.72982 | -9.23950 | 6632 ft | 266 kts | 217° |
| 2026-05-01 11:22 | 38.71667 | -9.25618 | 6355 ft | 270 kts | 228° |
| 2026-05-01 11:22 | 38.70470 | -9.27475 | 6057 ft | 270 kts | 231° |
| 2026-05-01 11:22 | 38.69127 | -9.29112 | 5749 ft | 264 kts | 208° |
| 2026-05-01 11:22 | 38.67375 | -9.29763 | 5461 ft | 265 kts | 183° |
| 2026-05-01 11:23 | 38.65554 | -9.29386 | 5165 ft | 263 kts | 158° |
| 2026-05-01 11:23 | 38.64019 | -9.28196 | 4879 ft | 257 kts | 144° |
| 2026-05-01 11:23 | 38.62769 | -9.26618 | 4566 ft | 252 kts | 119° |
| 2026-05-01 11:23 | 38.62426 | -9.24492 | 4281 ft | 247 kts | 83° |
| 2026-05-01 11:24 | 38.63114 | -9.22553 | 3982 ft | 240 kts | 47° |
| 2026-05-01 11:24 | 38.64324 | -9.21220 | 3460 ft | 218 kts | 35° |
| 2026-05-01 11:24 | 38.66711 | -9.19470 | 2962 ft | 175 kts | 27° |
| 2026-05-01 11:25 | 38.67796 | -9.18917 | 2555 ft | 167 kts | 18° |
| 2026-05-01 11:25 | 38.69946 | -9.17922 | 1607 ft | 160 kts | 21° |
| 2026-05-01 11:25 | 38.70905 | -9.17425 | 1593 ft | 141 kts | 22° |
| 2026-05-01 11:26 | 38.71898 | -9.16902 | 1668 ft | 165 kts | 22° |
| 2026-05-01 11:26 | 38.74044 | -9.15771 | 1133 ft | 168 kts | 22° |
| 2026-05-01 11:26 | 38.75082 | -9.15213 | 732 ft | 157 kts | 22° |
| 2026-05-01 11:27 | 38.76066 | -9.14699 | 467 ft | 152 kts | 22° |
| 2026-05-01 11:27 | 38.77026 | -9.14183 | 351 ft | 137 kts | 22° |
| 2026-05-01 11:27 | 38.77710 | -9.13819 | 363 ft | 84 kts | 22° |
| 2026-05-01 11:27 | 38.78144 | -9.13583 | 365 ft | 51 kts | 23° |
| 2026-05-01 11:28 | 38.78316 | -9.13447 | 362 ft | 18 kts | 45° |